createdAt,value
2022-12-03T00:00:45.130Z,11.80
2022-12-03T00:02:48.175Z,12.07
2022-12-03T00:04:51.776Z,11.25
2022-12-03T00:06:54.881Z,11.27
2022-12-03T00:08:59.237Z,11.52
2022-12-03T00:11:02.217Z,11.30
2022-12-03T00:13:05.261Z,10.85
2022-12-03T00:15:09.730Z,12.15
2022-12-03T00:17:12.720Z,12.30
2022-12-03T00:19:16.281Z,11.50
2022-12-03T00:21:19.198Z,12.13
2022-12-03T00:23:22.134Z,11.63
2022-12-03T00:25:26.481Z,12.35
2022-12-03T00:27:29.563Z,11.93
2022-12-03T00:29:32.598Z,12.13
2022-12-03T00:31:36.100Z,12.20
2022-12-03T00:33:39.285Z,12.43
2022-12-03T00:35:42.621Z,12.23
2022-12-03T00:37:45.725Z,12.77
2022-12-03T00:39:48.671Z,12.60
2022-12-03T00:41:53.072Z,11.73
2022-12-03T00:43:57.616Z,13.15
2022-12-03T00:46:00.773Z,12.20
2022-12-03T00:48:03.735Z,12.25
2022-12-03T00:50:08.154Z,12.82
2022-12-03T00:52:11.172Z,12.45
2022-12-03T00:54:14.282Z,11.77
2022-12-03T00:56:17.296Z,12.30
2022-12-03T00:58:21.703Z,11.27
2022-12-03T01:00:25.376Z,12.70
2022-12-03T01:02:28.451Z,13.02
2022-12-03T01:04:32.705Z,12.35
2022-12-03T01:06:35.718Z,12.65
2022-12-03T01:08:38.751Z,12.45
2022-12-03T01:10:41.676Z,13.85
2022-12-03T01:12:44.877Z,12.80
2022-12-03T01:14:49.244Z,13.10
2022-12-03T01:16:52.334Z,12.43
2022-12-03T01:18:55.409Z,13.65
2022-12-03T01:20:58.341Z,13.20
2022-12-03T01:23:01.346Z,13.05
2022-12-03T01:25:04.945Z,12.20
2022-12-03T01:27:07.939Z,12.93
2022-12-03T01:29:11.026Z,13.90
2022-12-03T01:31:33.067Z,12.90
2022-12-03T01:33:36.553Z,13.55
2022-12-03T01:35:39.502Z,14.70
2022-12-03T01:37:42.463Z,13.40
2022-12-03T01:39:45.498Z,13.55
2022-12-03T01:41:49.373Z,14.18
2022-12-03T01:43:53.215Z,13.68
2022-12-03T01:45:57.415Z,13.63
2022-12-03T01:48:01.846Z,13.65
2022-12-03T01:50:07.555Z,14.55
2022-12-03T01:52:13.099Z,14.38
2022-12-03T01:54:18.346Z,13.57
2022-12-03T01:56:21.352Z,12.80
2022-12-03T01:58:28.438Z,13.82
2022-12-03T02:00:32.009Z,13.85
2022-12-03T02:02:35.124Z,14.18
2022-12-03T02:04:39.536Z,14.27
2022-12-03T02:06:43.127Z,14.50
2022-12-03T02:08:46.647Z,14.23
2022-12-03T02:10:49.680Z,14.13
2022-12-03T02:12:55.766Z,13.70
2022-12-03T02:14:58.803Z,14.45
2022-12-03T02:17:09.307Z,14.85
2022-12-03T02:19:19.580Z,13.38
2022-12-03T02:21:29.110Z,16.17
2022-12-03T02:23:36.589Z,21.48
2022-12-03T02:25:41.036Z,31.85
2022-12-03T02:27:44.466Z,15.75
2022-12-03T02:29:47.442Z,14.90
2022-12-03T02:31:50.444Z,19.63
2022-12-03T02:33:54.420Z,25.42
2022-12-03T02:36:03.139Z,20.73
2022-12-03T02:38:13.986Z,18.27
2022-12-03T02:40:19.906Z,15.85
2022-12-03T02:42:35.267Z,14.90
2022-12-03T02:44:38.916Z,14.50
2022-12-03T02:46:42.057Z,15.35
2022-12-03T02:48:45.091Z,14.90
2022-12-03T02:50:51.555Z,15.40
2022-12-03T02:52:55.752Z,15.00
2022-12-03T02:54:59.006Z,16.33
2022-12-03T02:57:02.231Z,15.38
2022-12-03T02:59:06.958Z,16.02
2022-12-03T03:01:10.591Z,16.38
2022-12-03T03:03:13.741Z,16.48
2022-12-03T03:05:17.303Z,15.52
2022-12-03T03:07:20.252Z,16.17
2022-12-03T03:09:23.397Z,15.90
2022-12-03T03:11:26.330Z,17.17
2022-12-03T03:13:30.735Z,15.63
2022-12-03T03:15:36.820Z,16.08
2022-12-03T03:17:40.319Z,17.67
2022-12-03T03:19:44.733Z,16.65
2022-12-03T03:21:47.693Z,16.60
2022-12-03T03:23:50.644Z,17.33
2022-12-03T03:25:58.496Z,17.02
2022-12-03T03:28:02.077Z,15.80
2022-12-03T03:30:05.798Z,19.55
2022-12-03T03:32:10.073Z,15.95
2022-12-03T03:34:13.832Z,16.00
2022-12-03T03:36:17.432Z,16.67
2022-12-03T03:38:21.224Z,15.00
2022-12-03T03:40:24.248Z,16.60
2022-12-03T03:42:27.554Z,16.15
2022-12-03T03:44:30.676Z,17.70
2022-12-03T03:46:34.341Z,18.75
2022-12-03T03:48:39.124Z,18.00
2022-12-03T03:50:42.947Z,17.75
2022-12-03T03:52:46.500Z,17.15
2022-12-03T03:54:49.483Z,17.00
2022-12-03T03:56:52.656Z,17.65
2022-12-03T03:58:56.345Z,17.00
2022-12-03T04:00:59.375Z,16.42
2022-12-03T04:03:02.399Z,17.63
2022-12-03T04:05:07.715Z,16.88
2022-12-03T04:07:10.647Z,17.63
2022-12-03T04:09:13.605Z,17.05
2022-12-03T04:11:33.954Z,18.10
2022-12-03T04:13:36.932Z,17.17
2022-12-03T04:15:40.118Z,16.92
2022-12-03T04:17:43.285Z,16.55
2022-12-03T04:19:46.321Z,16.15
2022-12-03T04:22:07.098Z,18.25
2022-12-03T04:24:11.448Z,17.83
2022-12-03T04:26:32.131Z,16.10
2022-12-03T04:28:49.181Z,17.65
2022-12-03T04:30:52.161Z,17.48
2022-12-03T04:33:13.098Z,17.63
2022-12-03T04:35:33.865Z,17.50
2022-12-03T04:37:38.260Z,18.10
2022-12-03T04:39:41.176Z,18.00
2022-12-03T04:41:44.259Z,18.48
2022-12-03T04:44:01.146Z,18.52
2022-12-03T04:46:04.165Z,18.23
2022-12-03T04:48:07.342Z,18.67
2022-12-03T04:50:11.358Z,17.17
2022-12-03T04:52:15.551Z,21.00
2022-12-03T04:54:20.068Z,18.88
2022-12-03T04:56:23.037Z,18.77
2022-12-03T04:58:25.954Z,17.40
2022-12-03T05:00:29.785Z,18.10
2022-12-03T05:02:32.824Z,18.60
2022-12-03T05:04:35.971Z,17.70
2022-12-03T05:06:39.152Z,17.92
2022-12-03T05:08:42.738Z,17.58
2022-12-03T05:10:47.123Z,17.63
2022-12-03T05:12:50.111Z,17.80
2022-12-03T05:14:53.279Z,18.27
2022-12-03T05:16:56.653Z,17.77
2022-12-03T05:18:59.719Z,19.50
2022-12-03T05:21:01.821Z,18.20
2022-12-03T05:23:04.876Z,19.83
2022-12-03T05:25:08.516Z,18.88
2022-12-03T05:27:12.881Z,18.15
2022-12-03T05:29:15.797Z,19.40
2022-12-03T05:31:18.870Z,19.85
2022-12-03T05:33:21.911Z,19.50
2022-12-03T05:35:25.037Z,19.20
2022-12-03T05:37:28.236Z,19.80
2022-12-03T05:39:31.259Z,18.13
2022-12-03T05:41:51.869Z,17.58
2022-12-03T05:43:56.324Z,18.65
2022-12-03T05:45:59.373Z,18.35
2022-12-03T05:48:03.031Z,18.73
2022-12-03T05:50:07.320Z,19.42
2022-12-03T05:52:10.304Z,19.95
2022-12-03T05:54:13.299Z,19.08
2022-12-03T05:56:16.381Z,19.10
2022-12-03T05:58:19.375Z,19.77
2022-12-03T06:00:25.461Z,20.17
2022-12-03T06:02:28.613Z,20.80
2022-12-03T06:04:31.734Z,21.40
2022-12-03T06:06:34.708Z,20.35
2022-12-03T06:08:37.724Z,19.92
2022-12-03T06:10:43.140Z,19.10
2022-12-03T06:12:46.124Z,20.27
2022-12-03T06:14:49.150Z,18.85
2022-12-03T06:16:54.555Z,19.48
2022-12-03T06:18:57.889Z,18.48
2022-12-03T06:21:00.840Z,20.48
2022-12-03T06:23:03.834Z,21.30
2022-12-03T06:25:07.460Z,19.65
2022-12-03T06:27:10.588Z,17.30
2022-12-03T06:29:13.690Z,18.05
2022-12-03T06:31:16.685Z,18.17
2022-12-03T06:33:21.111Z,21.00
2022-12-03T06:35:24.115Z,19.75
2022-12-03T06:37:27.132Z,20.30
2022-12-03T06:39:30.203Z,18.73
2022-12-03T06:41:33.243Z,19.88
2022-12-03T06:43:36.228Z,18.10
2022-12-03T06:45:42.116Z,19.08
2022-12-03T06:47:49.199Z,20.55
2022-12-03T06:49:53.532Z,19.23
2022-12-03T06:51:56.956Z,19.75
2022-12-03T06:54:00.223Z,20.90
2022-12-03T06:56:03.228Z,19.27
2022-12-03T06:58:06.349Z,18.80
2022-12-03T07:00:12.185Z,18.27
2022-12-03T07:02:15.143Z,24.10
2022-12-03T07:04:18.163Z,20.33
2022-12-03T07:06:22.464Z,20.17
2022-12-03T07:08:25.490Z,20.83
2022-12-03T07:10:28.595Z,18.95
2022-12-03T07:12:32.710Z,20.52
2022-12-03T07:14:35.698Z,21.85
2022-12-03T07:16:39.432Z,19.85
2022-12-03T07:18:42.487Z,21.25
2022-12-03T07:20:45.664Z,21.90
2022-12-03T07:22:50.046Z,19.63
2022-12-03T07:24:53.378Z,21.95
2022-12-03T07:26:56.654Z,22.05
2022-12-03T07:29:02.090Z,21.45
2022-12-03T07:31:05.547Z,20.10
2022-12-03T07:33:08.640Z,22.02
2022-12-03T07:35:12.718Z,18.55
2022-12-03T07:37:22.642Z,21.90
2022-12-03T07:39:27.807Z,21.52
2022-12-03T07:41:30.813Z,21.15
2022-12-03T07:43:33.944Z,19.83
2022-12-03T07:45:36.971Z,20.85
2022-12-03T07:47:55.464Z,19.42
2022-12-03T07:49:58.444Z,22.63
2022-12-03T07:52:01.491Z,20.55
2022-12-03T07:54:04.799Z,21.75
2022-12-03T07:56:09.695Z,23.38
2022-12-03T07:58:12.733Z,23.65
2022-12-03T08:00:16.802Z,21.30
2022-12-03T08:02:21.888Z,23.52
2022-12-03T08:04:25.089Z,19.50
2022-12-03T08:06:28.137Z,22.35
2022-12-03T08:08:31.155Z,20.90
2022-12-03T08:10:34.123Z,19.10
2022-12-03T08:12:42.646Z,20.25
2022-12-03T08:14:45.795Z,18.35
2022-12-03T08:16:49.374Z,19.20
2022-12-03T08:18:52.721Z,18.60
2022-12-03T08:20:55.925Z,19.60
2022-12-03T08:22:59.082Z,18.50
2022-12-03T08:25:02.155Z,18.17
2022-12-03T08:27:07.299Z,18.15
2022-12-03T08:29:12.717Z,19.13
2022-12-03T08:31:20.914Z,17.48
2022-12-03T08:33:28.304Z,17.63
2022-12-03T08:35:32.080Z,18.55
2022-12-03T08:37:37.017Z,17.83
2022-12-03T08:39:44.552Z,16.17
2022-12-03T08:42:12.203Z,17.48
2022-12-03T08:44:25.282Z,17.45
2022-12-03T08:46:28.396Z,16.38
2022-12-03T08:48:36.866Z,15.55
2022-12-03T08:50:41.813Z,17.00
2022-12-03T08:52:44.823Z,16.92
2022-12-03T08:54:52.512Z,16.65
2022-12-03T08:56:55.926Z,18.15
2022-12-03T08:59:00.575Z,24.23
2022-12-03T09:01:19.004Z,18.35
2022-12-03T09:03:22.142Z,17.73
2022-12-03T09:05:28.717Z,16.02
2022-12-03T09:07:31.755Z,17.63
2022-12-03T09:09:34.969Z,17.80
2022-12-03T09:11:38.209Z,18.13
2022-12-03T09:13:41.261Z,17.25
2022-12-03T09:15:44.224Z,15.90
2022-12-03T09:17:48.914Z,17.45
2022-12-03T09:19:51.938Z,16.20
2022-12-03T09:21:55.449Z,17.80
2022-12-03T09:23:58.503Z,17.02
2022-12-03T09:26:01.520Z,16.15
2022-12-03T09:28:04.642Z,16.10
2022-12-03T09:30:08.948Z,15.77
2022-12-03T09:32:17.935Z,15.85
2022-12-03T09:34:22.856Z,16.60
2022-12-03T09:36:25.854Z,16.98
2022-12-03T09:38:28.824Z,17.45
2022-12-03T09:40:31.853Z,17.88
2022-12-03T09:42:35.142Z,15.35
2022-12-03T09:44:39.154Z,16.33
2022-12-03T09:46:43.007Z,16.77
2022-12-03T09:48:46.492Z,17.83
2022-12-03T09:50:51.157Z,18.08
2022-12-03T09:52:55.862Z,17.40
2022-12-03T09:55:00.346Z,17.25
2022-12-03T09:57:05.242Z,17.75
2022-12-03T09:59:13.994Z,18.98
2022-12-03T10:01:17.462Z,16.73
2022-12-03T10:03:29.497Z,21.13
2022-12-03T10:05:34.328Z,16.92
2022-12-03T10:07:39.138Z,18.40
2022-12-03T10:09:42.133Z,18.83
2022-12-03T10:11:45.268Z,18.35
2022-12-03T10:13:48.682Z,18.50
2022-12-03T10:15:52.938Z,18.65
2022-12-03T10:17:56.746Z,17.70
2022-12-03T10:19:59.845Z,19.58
2022-12-03T10:22:03.111Z,19.95
2022-12-03T10:24:25.469Z,19.27
2022-12-03T10:26:39.667Z,18.67
2022-12-03T10:28:44.145Z,17.67
2022-12-03T10:30:54.605Z,19.13
2022-12-03T10:32:59.072Z,17.63
2022-12-03T10:35:09.991Z,21.05
2022-12-03T10:37:16.035Z,19.25
2022-12-03T10:39:20.594Z,18.40
2022-12-03T10:41:26.490Z,16.35
2022-12-03T10:43:29.454Z,16.83
2022-12-03T10:45:35.239Z,16.02
2022-12-03T10:47:38.383Z,16.38
2022-12-03T10:49:42.015Z,17.23
2022-12-03T10:51:46.082Z,19.55
2022-12-03T10:53:50.606Z,19.85
2022-12-03T10:55:59.440Z,15.77
2022-12-03T10:58:02.572Z,15.98
2022-12-03T11:00:07.287Z,16.10
2022-12-03T11:02:15.589Z,16.02
2022-12-03T11:04:23.786Z,16.10
2022-12-03T11:06:26.823Z,14.65
2022-12-03T11:08:32.590Z,15.35
2022-12-03T11:10:35.645Z,16.42
2022-12-03T11:12:39.993Z,15.40
2022-12-03T11:15:09.845Z,14.70
2022-12-03T11:17:12.978Z,14.98
2022-12-03T11:19:17.366Z,14.40
2022-12-03T11:21:20.490Z,15.48
2022-12-03T11:23:56.617Z,13.63
2022-12-03T11:25:59.869Z,13.70
2022-12-03T11:28:36.143Z,15.70
2022-12-03T11:31:01.469Z,14.77
2022-12-03T11:33:04.646Z,14.50
2022-12-03T11:35:12.765Z,14.63
2022-12-03T11:37:28.877Z,14.27
2022-12-03T11:40:03.604Z,15.52
2022-12-03T11:42:30.092Z,13.98
2022-12-03T11:44:33.855Z,15.48
2022-12-03T11:46:43.602Z,15.15
2022-12-03T11:48:47.202Z,14.35
2022-12-03T11:50:52.783Z,14.93
2022-12-03T11:52:56.986Z,16.30
2022-12-03T11:55:04.349Z,14.63
2022-12-03T11:57:27.338Z,14.38
2022-12-03T11:59:30.407Z,14.73
2022-12-03T12:01:38.598Z,14.82
2022-12-03T12:03:46.837Z,14.50
2022-12-03T12:06:01.650Z,16.38
2022-12-03T12:08:04.970Z,14.52
2022-12-03T12:10:08.771Z,15.23
2022-12-03T12:12:26.760Z,15.75
2022-12-03T12:14:29.824Z,13.52
2022-12-03T12:16:51.319Z,17.77
2022-12-03T12:18:56.399Z,18.23
2022-12-03T12:21:32.870Z,18.08
2022-12-03T12:23:35.842Z,16.67
2022-12-03T12:25:41.382Z,17.38
2022-12-03T12:27:47.236Z,16.70
2022-12-03T12:29:55.389Z,14.50
2022-12-03T12:32:01.189Z,16.10
2022-12-03T12:34:12.720Z,14.95
2022-12-03T12:36:15.761Z,15.00
2022-12-03T12:38:20.647Z,14.90
2022-12-03T12:40:26.823Z,15.95
2022-12-03T12:42:34.494Z,15.75
2022-12-03T12:44:37.483Z,15.95
2022-12-03T12:46:47.622Z,17.00
2022-12-03T12:48:53.331Z,15.65
2022-12-03T12:51:11.040Z,15.88
2022-12-03T12:53:19.666Z,15.50
2022-12-03T12:55:24.193Z,17.05
2022-12-03T12:57:27.190Z,14.75
2022-12-03T12:59:30.147Z,15.35
2022-12-03T13:01:35.486Z,15.15
2022-12-03T13:03:42.945Z,13.77
2022-12-03T13:05:47.511Z,15.15
2022-12-03T13:07:53.950Z,14.30
2022-12-03T13:09:57.106Z,14.50
2022-12-03T13:12:01.351Z,15.07
2022-12-03T13:14:08.394Z,14.32
2022-12-03T13:16:14.460Z,13.82
2022-12-03T13:18:42.160Z,15.60
2022-12-03T13:20:45.268Z,14.73
2022-12-03T13:22:48.407Z,15.38
2022-12-03T13:24:53.997Z,17.02
2022-12-03T13:26:59.371Z,16.67
2022-12-03T13:29:04.432Z,16.45
2022-12-03T13:31:22.624Z,15.15
2022-12-03T13:33:27.292Z,17.33
2022-12-03T13:35:35.099Z,17.33
2022-12-03T13:37:38.791Z,17.38
2022-12-03T13:39:48.846Z,17.33
2022-12-03T13:42:11.050Z,17.58
2022-12-03T13:44:17.593Z,19.77
2022-12-03T13:46:20.742Z,18.38
2022-12-03T13:48:25.077Z,23.48
2022-12-03T13:50:33.750Z,20.95
2022-12-03T13:52:36.713Z,17.67
2022-12-03T13:54:40.209Z,17.85
2022-12-03T13:56:43.280Z,16.30
2022-12-03T13:58:47.672Z,17.92
2022-12-03T14:00:51.003Z,17.80
2022-12-03T14:02:54.259Z,17.30
2022-12-03T14:05:00.421Z,14.55
2022-12-03T14:07:03.972Z,13.70
2022-12-03T14:09:07.129Z,12.90
2022-12-03T14:11:30.508Z,13.57
2022-12-03T14:13:33.601Z,14.40
2022-12-03T14:15:38.109Z,12.98
2022-12-03T14:17:41.203Z,13.75
2022-12-03T14:19:44.245Z,12.52
2022-12-03T14:21:47.460Z,13.73
2022-12-03T14:23:50.468Z,11.93
2022-12-03T14:25:55.285Z,13.57
2022-12-03T14:27:58.400Z,13.57
2022-12-03T14:30:01.477Z,13.77
2022-12-03T14:32:05.995Z,13.00
2022-12-03T14:34:09.059Z,13.90
2022-12-03T14:36:12.042Z,13.35
2022-12-03T14:38:15.106Z,13.70
2022-12-03T14:40:21.732Z,13.60
2022-12-03T14:42:24.264Z,13.80
2022-12-03T14:44:28.087Z,16.27
2022-12-03T14:46:32.067Z,14.40
2022-12-03T14:48:36.434Z,15.82
2022-12-03T14:50:39.417Z,15.35
2022-12-03T14:52:43.291Z,18.20
2022-12-03T14:54:46.401Z,13.50
2022-12-03T14:56:49.468Z,13.85
2022-12-03T14:58:52.530Z,14.95
2022-12-03T15:00:55.572Z,13.80
2022-12-03T15:02:58.688Z,13.68
2022-12-03T15:05:03.454Z,13.85
2022-12-03T15:07:06.624Z,12.48
2022-12-03T15:09:09.633Z,12.93
2022-12-03T15:11:12.554Z,13.38
2022-12-03T15:13:15.626Z,12.75
2022-12-03T15:15:18.700Z,12.50
2022-12-03T15:17:30.930Z,14.05
2022-12-03T15:19:34.901Z,13.55
2022-12-03T15:21:39.263Z,12.43
2022-12-03T15:23:42.590Z,10.77
2022-12-03T15:25:45.778Z,13.05
2022-12-03T15:27:48.879Z,12.63
2022-12-03T15:29:52.239Z,11.60
2022-12-03T15:31:55.738Z,11.27
2022-12-03T15:33:58.802Z,12.23
2022-12-03T15:36:01.930Z,12.10
2022-12-03T15:38:06.341Z,12.57
2022-12-03T15:40:10.856Z,13.80
2022-12-03T15:42:14.665Z,12.98
2022-12-03T15:44:17.730Z,14.07
2022-12-03T15:46:20.930Z,14.15
2022-12-03T15:48:23.956Z,15.48
2022-12-03T15:50:27.009Z,14.20
2022-12-03T15:52:30.149Z,14.10
2022-12-03T15:54:34.733Z,13.30
2022-12-03T15:56:37.880Z,14.02
2022-12-03T15:58:41.636Z,12.20
2022-12-03T16:00:44.637Z,13.25
2022-12-03T16:02:52.738Z,13.65
2022-12-03T16:04:56.258Z,15.70
2022-12-03T16:06:59.249Z,15.57
2022-12-03T16:09:02.259Z,14.63
2022-12-03T16:11:07.147Z,14.45
2022-12-03T16:13:10.078Z,15.43
2022-12-03T16:15:13.081Z,15.00
2022-12-03T16:17:16.118Z,14.60
2022-12-03T16:19:19.262Z,15.73
2022-12-03T16:21:26.748Z,16.15
2022-12-03T16:23:30.226Z,14.20
2022-12-03T16:25:33.299Z,13.70
2022-12-03T16:27:38.264Z,16.23
2022-12-03T16:29:41.216Z,15.52
2022-12-03T16:31:45.776Z,14.82
2022-12-03T16:33:49.037Z,15.80
2022-12-03T16:35:52.007Z,16.05
2022-12-03T16:37:55.024Z,15.40
2022-12-03T16:39:58.087Z,16.30
2022-12-03T16:42:01.100Z,16.08
2022-12-03T16:44:05.602Z,16.40
2022-12-03T16:46:21.182Z,14.75
2022-12-03T16:48:24.286Z,17.10
2022-12-03T16:50:29.788Z,15.65
2022-12-03T16:52:33.346Z,14.93
2022-12-03T16:54:36.323Z,15.63
2022-12-03T16:56:39.436Z,15.27
2022-12-03T16:58:42.701Z,16.20
2022-12-03T17:00:47.074Z,16.92
2022-12-03T17:02:50.164Z,18.33
2022-12-03T17:04:53.203Z,18.95
2022-12-03T17:06:56.254Z,15.75
2022-12-03T17:08:59.270Z,16.95
2022-12-03T17:11:02.401Z,17.25
2022-12-03T17:13:10.158Z,16.50
2022-12-03T17:15:13.561Z,19.02
2022-12-03T17:17:17.896Z,17.60
2022-12-03T17:19:20.965Z,16.55
2022-12-03T17:21:24.062Z,16.92
2022-12-03T17:23:27.090Z,16.95
2022-12-03T17:25:30.219Z,18.45
2022-12-03T17:27:33.247Z,16.95
2022-12-03T17:29:36.236Z,17.02
2022-12-03T17:31:42.179Z,19.08
2022-12-03T17:33:47.104Z,20.13
2022-12-03T17:35:50.102Z,19.33
2022-12-03T17:37:53.112Z,19.27
2022-12-03T17:39:56.357Z,19.38
2022-12-03T17:41:59.924Z,19.70
2022-12-03T17:44:09.634Z,19.00
2022-12-03T17:46:13.816Z,17.92
2022-12-03T17:48:16.875Z,19.95
2022-12-03T17:50:21.489Z,18.55
2022-12-03T17:52:24.634Z,17.67
2022-12-03T17:54:43.204Z,16.70
2022-12-03T17:56:50.547Z,17.42
2022-12-03T17:58:53.695Z,18.98
2022-12-03T18:01:02.039Z,20.08
2022-12-03T18:03:05.862Z,19.02
2022-12-03T18:05:09.754Z,17.63
2022-12-03T18:07:14.206Z,17.70
2022-12-03T18:09:17.985Z,18.13
2022-12-03T18:11:21.268Z,16.48
2022-12-03T18:13:24.216Z,18.05
2022-12-03T18:15:27.236Z,18.08
2022-12-03T18:17:30.309Z,18.95
2022-12-03T18:19:33.483Z,19.98
2022-12-03T18:21:36.788Z,18.70
2022-12-03T18:23:41.361Z,18.35
2022-12-03T18:25:44.445Z,19.95
2022-12-03T18:27:47.717Z,19.25
2022-12-03T18:29:50.825Z,17.92
2022-12-03T18:31:53.936Z,18.05
2022-12-03T18:33:56.938Z,19.05
2022-12-03T18:35:59.962Z,19.38
2022-12-03T18:38:02.949Z,22.00
2022-12-03T18:40:13.185Z,21.92
2022-12-03T18:42:18.136Z,19.83
2022-12-03T18:44:21.504Z,19.80
2022-12-03T18:46:51.771Z,18.63
2022-12-03T18:48:48.872Z,18.40
2022-12-03T18:50:51.940Z,18.63
2022-12-03T18:52:54.942Z,18.50
2022-12-03T18:54:57.955Z,17.80
2022-12-03T18:57:02.258Z,18.75
2022-12-03T18:59:06.547Z,16.58
2022-12-03T19:01:15.447Z,18.70
2022-12-03T19:03:18.531Z,17.70
2022-12-03T19:05:21.647Z,17.77
2022-12-03T19:07:24.656Z,16.88
2022-12-03T19:09:27.784Z,18.00
2022-12-03T19:11:30.847Z,17.50
2022-12-03T19:13:35.240Z,15.82
2022-12-03T19:15:39.022Z,17.25
2022-12-03T19:17:42.181Z,16.25
2022-12-03T19:19:46.372Z,15.80
2022-12-03T19:21:49.570Z,14.98
2022-12-03T19:24:22.654Z,16.23
2022-12-03T19:26:16.046Z,15.77
2022-12-03T19:28:19.191Z,16.15
2022-12-03T19:30:23.669Z,15.73
2022-12-03T19:32:26.710Z,16.30
2022-12-03T19:34:29.869Z,15.45
2022-12-03T19:36:33.400Z,16.45
2022-12-03T19:38:36.470Z,15.90
2022-12-03T19:40:39.571Z,17.15
2022-12-03T19:42:42.647Z,14.82
2022-12-03T19:44:45.791Z,16.10
2022-12-03T19:46:51.663Z,15.25
2022-12-03T19:48:54.910Z,17.25
2022-12-03T19:51:19.909Z,15.55
2022-12-03T19:53:22.685Z,14.95
2022-12-03T19:55:25.756Z,16.42
2022-12-03T19:57:29.350Z,15.95
2022-12-03T19:59:32.335Z,13.88
2022-12-03T20:01:36.662Z,15.63
2022-12-03T20:03:41.593Z,15.48
2022-12-03T20:05:44.691Z,16.95
2022-12-03T20:07:47.797Z,16.42
2022-12-03T20:09:52.356Z,15.50
2022-12-03T20:11:55.634Z,15.75
2022-12-03T20:14:00.332Z,15.35
2022-12-03T20:16:04.451Z,14.88
2022-12-03T20:18:07.596Z,15.73
2022-12-03T20:20:12.858Z,14.52
2022-12-03T20:22:15.944Z,14.80
2022-12-03T20:24:19.524Z,14.18
2022-12-03T20:26:23.214Z,13.70
2022-12-03T20:28:26.618Z,13.35
2022-12-03T20:30:29.678Z,13.23
2022-12-03T20:32:32.913Z,13.38
2022-12-03T20:34:36.342Z,13.60
2022-12-03T20:36:40.776Z,15.30
2022-12-03T20:38:44.332Z,16.70
2022-12-03T20:40:47.353Z,15.55
2022-12-03T20:42:50.415Z,16.30
2022-12-03T20:44:54.105Z,15.43
2022-12-03T20:46:58.251Z,14.90
2022-12-03T20:49:01.472Z,15.10
2022-12-03T20:51:05.907Z,14.45
2022-12-03T20:53:24.323Z,14.80
2022-12-03T20:55:28.110Z,14.18
2022-12-03T20:57:31.147Z,14.07
2022-12-03T20:59:34.143Z,15.07
2022-12-03T21:01:38.432Z,16.05
2022-12-03T21:03:41.731Z,13.80
2022-12-03T21:05:44.962Z,13.02
2022-12-03T21:07:48.858Z,15.40
2022-12-03T21:09:53.771Z,14.25
2022-12-03T21:11:57.125Z,13.60
2022-12-03T21:14:00.738Z,13.70
2022-12-03T21:16:06.977Z,14.82
2022-12-03T21:18:11.401Z,14.02
2022-12-03T21:20:20.596Z,16.30
2022-12-03T21:22:24.174Z,15.30
2022-12-03T21:24:27.343Z,14.30
2022-12-03T21:26:32.687Z,15.25
2022-12-03T21:28:36.156Z,15.35
2022-12-03T21:30:40.242Z,15.63
2022-12-03T21:32:43.508Z,15.45
2022-12-03T21:34:46.918Z,15.40
2022-12-03T21:36:50.078Z,16.90
2022-12-03T21:38:53.678Z,15.77
2022-12-03T21:40:57.387Z,14.25
2022-12-03T21:43:01.865Z,16.13
2022-12-03T21:45:05.949Z,15.32
2022-12-03T21:47:14.360Z,18.15
2022-12-03T21:49:19.312Z,33.80
2022-12-03T21:51:22.690Z,19.83
2022-12-03T21:53:25.749Z,18.48
2022-12-03T21:55:28.696Z,15.40
2022-12-03T21:57:31.809Z,16.00
2022-12-03T21:59:36.409Z,15.77
2022-12-03T22:01:42.877Z,14.63
2022-12-03T22:03:50.088Z,14.57
2022-12-03T22:05:53.203Z,15.02
2022-12-03T22:07:56.234Z,15.45
2022-12-03T22:09:59.317Z,18.17
2022-12-03T22:12:03.523Z,16.52
2022-12-03T22:14:08.235Z,28.80
2022-12-03T22:16:14.505Z,24.15
2022-12-03T22:18:17.585Z,23.85
2022-12-03T22:20:20.731Z,19.52
2022-12-03T22:22:23.785Z,18.10
2022-12-03T22:24:26.872Z,20.13
2022-12-03T22:26:29.904Z,17.55
2022-12-03T22:28:33.544Z,17.17
2022-12-03T22:30:36.654Z,18.58
2022-12-03T22:32:41.089Z,16.48
2022-12-03T22:34:44.186Z,15.23
2022-12-03T22:36:47.529Z,15.50
2022-12-03T22:38:50.823Z,15.90
2022-12-03T22:40:53.983Z,16.00
2022-12-03T22:42:56.932Z,14.50
2022-12-03T22:44:59.913Z,16.10
2022-12-03T22:47:02.913Z,17.73
2022-12-03T22:49:07.849Z,15.05
2022-12-03T22:51:13.068Z,17.13
2022-12-03T22:53:16.233Z,16.30
2022-12-03T22:55:19.293Z,15.05
2022-12-03T22:57:22.631Z,15.27
2022-12-03T22:59:25.611Z,16.65
2022-12-03T23:01:30.282Z,16.60
2022-12-03T23:03:33.426Z,14.02
2022-12-03T23:05:39.509Z,15.68
2022-12-03T23:07:42.524Z,15.70
2022-12-03T23:09:45.532Z,15.02
2022-12-03T23:11:48.637Z,15.70
2022-12-03T23:13:51.896Z,15.10
2022-12-03T23:15:55.052Z,15.93
2022-12-03T23:17:58.571Z,14.73
2022-12-03T23:20:01.658Z,14.45
2022-12-03T23:22:06.588Z,13.98
2022-12-03T23:24:09.772Z,14.13
2022-12-03T23:26:13.700Z,14.48
2022-12-03T23:28:16.761Z,15.65
2022-12-03T23:30:19.883Z,14.20
2022-12-03T23:32:22.811Z,15.10
2022-12-03T23:34:25.783Z,14.13
2022-12-03T23:36:32.510Z,16.70
2022-12-03T23:38:36.912Z,15.68
2022-12-03T23:40:44.741Z,16.92
2022-12-03T23:42:50.932Z,15.07
2022-12-03T23:44:53.863Z,17.33
2022-12-03T23:46:56.869Z,16.92
2022-12-03T23:49:00.164Z,13.98
2022-12-03T23:51:06.550Z,15.30
2022-12-03T23:53:09.616Z,16.67
2022-12-03T23:55:13.971Z,14.75
2022-12-03T23:57:18.315Z,13.88
2022-12-03T23:59:21.378Z,14.90
